Time;durP1;ratioP1;P1;durP2;ratioP2;P2;SDS_P1;SDS_P2;PMS_P1;PMS_P2;Temp;Humidity;BMP_temperature;BMP_pressure;BME280_temperature;BME280_humidity;BME280_pressure;Samples;Min_cycle;Max_cycle;Signal;HPM_P1;HPM_P2
2022/04/20 00:02:24;;;;;;;5.88;2.75;;;10.90;99.90;;;;;;4845514;29;20049;-90
2022/04/20 00:04:53;;;;;;;6.28;2.75;;;11.10;99.90;;;;;;4860678;29;20097;-90
2022/04/20 00:07:22;;;;;;;7.05;3.38;;;11.10;99.90;;;;;;4861353;29;20076;-90
2022/04/20 00:09:49;;;;;;;4.40;2.70;;;11.00;99.90;;;;;;4861027;29;20084;-91
2022/04/20 00:12:16;;;;;;;9.52;2.38;;;11.10;99.90;;;;;;4845564;29;20063;-90
2022/04/20 00:14:44;;;;;;;8.55;2.92;;;11.00;99.90;;;;;;4862147;29;20061;-90
2022/04/20 00:17:15;;;;;;;4.57;1.75;;;10.90;99.90;;;;;;4845748;29;20046;-90
2022/04/20 00:19:44;;;;;;;3.15;1.90;;;10.90;99.90;;;;;;4842175;29;20113;-91
2022/04/20 00:22:14;;;;;;;5.90;2.90;;;10.90;99.90;;;;;;4827821;29;20054;-90
2022/04/20 00:24:45;;;;;;;9.05;2.60;;;10.90;99.90;;;;;;4842264;29;20057;-91
2022/04/20 00:27:12;;;;;;;11.43;3.30;;;10.80;99.90;;;;;;4842810;29;20050;-91
2022/04/20 00:29:40;;;;;;;9.30;2.80;;;10.70;99.90;;;;;;4842570;29;20057;-91
2022/04/20 00:32:09;;;;;;;5.85;2.17;;;10.70;99.90;;;;;;4831893;29;20038;-91
2022/04/20 00:34:40;;;;;;;4.72;2.58;;;10.70;99.90;;;;;;4850390;29;20079;-90
2022/04/20 00:37:10;;;;;;;10.60;3.20;;;10.80;99.90;;;;;;4849533;29;20129;-91
2022/04/20 00:39:39;;;;;;;6.28;2.78;;;10.90;99.90;;;;;;4836723;29;20122;-90
2022/04/20 00:42:06;;;;;;;5.22;2.63;;;10.60;99.90;;;;;;4849023;29;20400;-91
2022/04/20 00:44:35;;;;;;;7.13;2.47;;;10.60;99.90;;;;;;4846014;29;20096;-90
2022/04/20 00:47:05;;;;;;;5.65;2.72;;;10.60;99.90;;;;;;4859232;29;20045;-91
2022/04/20 00:49:35;;;;;;;5.97;2.83;;;10.60;99.90;;;;;;4864367;29;20136;-89
2022/04/20 00:52:06;;;;;;;9.43;2.80;;;10.70;99.90;;;;;;4864412;29;20207;-91
2022/04/20 00:54:35;;;;;;;8.30;2.65;;;10.60;99.90;;;;;;4864234;29;20473;-91
2022/04/20 00:57:03;;;;;;;7.05;2.28;;;10.60;99.90;;;;;;4848659;29;20053;-90
2022/04/20 00:59:34;;;;;;;6.45;2.88;;;10.70;99.90;;;;;;4848928;29;20136;-91
2022/04/20 01:02:03;;;;;;;5.90;2.13;;;10.50;99.90;;;;;;4848449;29;20046;-90
2022/04/20 01:04:33;;;;;;;5.03;2.33;;;10.60;99.90;;;;;;4864518;29;20121;-89
2022/04/20 01:07:19;;;;;;;6.72;3.15;;;10.60;99.90;;;;;;4863610;29;20056;-91
2022/04/20 01:10:16;;;;;;;7.95;2.70;;;10.60;99.90;;;;;;4862386;29;20447;-89
2022/04/20 01:12:46;;;;;;;9.15;2.47;;;10.50;99.90;;;;;;4865395;29;20148;-90
2022/04/20 01:15:37;;;;;;;5.82;2.97;;;10.50;99.90;;;;;;4858963;29;20057;-90
2022/04/20 01:18:18;;;;;;;8.35;2.45;;;10.50;99.90;;;;;;4850574;29;20049;-90
2022/04/20 01:20:47;;;;;;;11.75;3.08;;;10.50;99.90;;;;;;4865176;29;20432;-90
2022/04/20 01:23:43;;;;;;;4.63;2.22;;;10.40;99.90;;;;;;4847236;29;20050;-92
2022/04/20 01:26:29;;;;;;;8.07;2.28;;;10.40;99.90;;;;;;4863754;29;20424;-90
2022/04/20 01:29:10;;;;;;;4.68;3.10;;;10.40;99.90;;;;;;4863360;29;20053;-91
2022/04/20 01:31:53;;;;;;;6.53;2.27;;;10.40;99.90;;;;;;4850375;29;20512;-90
2022/04/20 01:34:34;;;;;;;6.43;2.63;;;10.40;99.90;;;;;;4849936;29;20375;-90
2022/04/20 01:37:03;;;;;;;4.82;1.95;;;10.60;99.90;;;;;;4863769;29;20049;-90
2022/04/20 01:39:31;;;;;;;6.05;3.00;;;10.90;99.90;;;;;;4833531;29;20511;-89
2022/04/20 01:42:02;;;;;;;3.78;2.33;;;10.70;99.90;;;;;;4848217;29;20046;-91
2022/04/20 01:44:30;;;;;;;8.15;2.53;;;10.90;99.90;;;;;;4863253;29;20053;-91
2022/04/20 01:47:14;;;;;;;2.50;1.65;;;10.80;99.90;;;;;;4849694;29;20058;-90
2022/04/20 01:49:54;;;;;;;6.75;2.63;;;10.80;99.90;;;;;;4849564;29;20049;-90
2022/04/20 01:52:49;;;;;;;7.15;3.30;;;10.70;99.90;;;;;;4862299;29;20133;-90
2022/04/20 01:55:35;;;;;;;3.90;2.10;;;10.50;99.90;;;;;;4864286;29;20109;-90
2022/04/20 01:58:14;;;;;;;5.63;2.35;;;10.40;99.90;;;;;;4863058;29;20052;-91
2022/04/20 02:02:34;;;;;;;5.07;2.95;;;10.40;99.90;;;;;;4844343;29;20060;-90
2022/04/20 02:03:50;;;;;;;7.72;2.83;;;10.30;99.90;;;;;;4863217;29;20048;-91
2022/04/20 02:06:19;;;;;;;8.55;3.20;;;10.20;99.90;;;;;;4863000;29;20040;-90
2022/04/20 02:09:00;;;;;;;5.88;2.35;;;10.20;99.90;;;;;;4863861;29;20041;-91
2022/04/20 02:11:38;;;;;;;4.32;2.13;;;10.30;99.90;;;;;;4863668;29;20056;-90
2022/04/20 02:14:20;;;;;;;3.13;1.50;;;10.60;99.90;;;;;;4863212;29;20098;-91
2022/04/20 02:16:57;;;;;;;5.13;2.72;;;10.80;99.90;;;;;;4855399;29;20116;-90
2022/04/20 02:19:34;;;;;;;6.35;3.05;;;10.50;99.90;;;;;;4844573;29;20046;-90
2022/04/20 02:22:09;;;;;;;8.73;3.33;;;10.40;99.90;;;;;;4859578;29;20052;-90
2022/04/20 02:24:36;;;;;;;5.68;2.80;;;10.40;99.90;;;;;;4844585;29;20077;-90
2022/04/20 02:27:09;;;;;;;5.05;2.40;;;10.50;99.90;;;;;;4860066;29;20103;-90
2022/04/20 02:29:40;;;;;;;5.15;2.78;;;10.40;99.90;;;;;;4859370;29;20483;-92
2022/04/20 02:32:09;;;;;;;4.97;2.55;;;10.20;99.90;;;;;;4845669;29;20049;-90
2022/04/20 02:34:42;;;;;;;3.70;2.03;;;10.50;99.90;;;;;;4844597;29;20487;-90
2022/04/20 02:37:13;;;;;;;5.95;2.75;;;10.60;99.90;;;;;;4850853;29;20053;-90
2022/04/20 02:39:43;;;;;;;4.10;2.72;;;10.30;78.00;;;;;;4864335;29;20102;-91
2022/04/20 02:42:13;;;;;;;8.98;3.22;;;10.40;67.20;;;;;;4846585;29;20137;-90
2022/04/20 02:44:46;;;;;;;5.07;2.40;;;10.10;77.50;;;;;;4860851;29;20050;-90
2022/04/20 02:47:19;;;;;;;4.63;2.83;;;10.00;92.30;;;;;;4859223;29;20462;-91
2022/04/20 02:49:46;;;;;;;7.70;3.13;;;10.10;89.90;;;;;;4859101;29;20482;-90
2022/04/20 02:52:16;;;;;;;7.22;2.65;;;10.00;87.80;;;;;;4858657;29;20057;-90
2022/04/20 02:54:43;;;;;;;7.00;3.28;;;9.90;99.90;;;;;;4860534;29;20061;-90
2022/04/20 02:57:20;;;;;;;4.30;1.95;;;9.80;94.30;;;;;;4863040;29;20150;-89
2022/04/20 02:59:53;;;;;;;5.13;3.38;;;10.30;99.90;;;;;;4847702;29;20526;-90
2022/04/20 03:02:31;;;;;;;5.03;2.03;;;10.20;95.20;;;;;;4861859;29;20121;-91
2022/04/20 03:04:59;;;;;;;4.63;2.28;;;10.40;99.90;;;;;;4862891;29;20098;-92
2022/04/20 03:07:27;;;;;;;9.85;4.05;;;10.30;99.90;;;;;;4862256;29;20517;-90
2022/04/20 03:09:55;;;;;;;3.30;2.08;;;10.00;94.50;;;;;;4862336;29;20049;-90
2022/04/20 03:12:26;;;;;;;6.38;3.45;;;10.30;99.90;;;;;;4862787;29;20142;-89
2022/04/20 03:14:57;;;;;;;5.13;2.33;;;10.20;92.70;;;;;;4847598;29;20054;-91
2022/04/20 03:17:27;;;;;;;8.55;3.92;;;10.00;99.10;;;;;;4844257;29;20441;-91
2022/04/20 03:19:55;;;;;;;8.20;3.47;;;9.60;99.90;;;;;;4829281;29;20045;-90
2022/04/20 03:22:22;;;;;;;9.40;2.63;;;9.80;99.90;;;;;;4843606;29;20057;-90
2022/04/20 03:24:55;;;;;;;8.18;2.60;;;9.80;99.90;;;;;;4828864;29;20141;-90
2022/04/20 03:28:01;;;;;;;5.63;3.22;;;9.70;99.90;;;;;;4840588;29;20151;-90
2022/04/20 03:30:32;;;;;;;6.30;3.55;;;9.70;99.90;;;;;;4843315;29;20061;-90
2022/04/20 03:33:09;;;;;;;5.97;2.63;;;9.70;99.90;;;;;;4829359;29;20057;-91
2022/04/20 03:35:38;;;;;;;4.17;2.70;;;9.40;99.90;;;;;;4843289;29;20058;-91
2022/04/20 03:38:10;;;;;;;7.00;4.00;;;9.60;99.90;;;;;;4843113;29;20301;-90
2022/04/20 03:40:39;;;;;;;4.13;1.92;;;9.50;99.90;;;;;;4842831;29;20046;-90
2022/04/20 03:43:10;;;;;;;4.10;2.70;;;9.80;99.90;;;;;;4843419;29;20057;-91
2022/04/20 03:45:42;;;;;;;6.63;2.47;;;9.70;99.90;;;;;;4843152;29;20140;-90
2022/04/20 03:48:12;;;;;;;4.80;2.67;;;9.80;99.90;;;;;;4844229;29;20050;-91
2022/04/20 03:50:39;;;;;;;7.60;3.92;;;9.70;99.90;;;;;;4842592;29;20083;-90
2022/04/20 03:53:07;;;;;;;6.65;2.75;;;9.40;99.90;;;;;;4828180;29;20136;-89
2022/04/20 03:55:34;;;;;;;5.40;3.22;;;9.60;99.90;;;;;;4842775;29;20075;-90
2022/04/20 03:58:05;;;;;;;6.32;2.72;;;9.70;99.90;;;;;;4842490;29;20038;-90
2022/04/20 04:00:33;;;;;;;4.47;2.47;;;9.50;99.90;;;;;;4842842;29;20489;-90
2022/04/20 04:03:03;;;;;;;4.68;2.33;;;9.60;99.90;;;;;;4844602;29;20041;-90
2022/04/20 04:06:12;;;;;;;5.13;3.15;;;9.80;99.90;;;;;;4843008;29;20050;-91
2022/04/20 04:08:51;;;;;;;6.68;3.13;;;9.90;99.90;;;;;;4817085;29;20523;-91
2022/04/20 04:11:21;;;;;;;5.53;3.50;;;9.70;99.90;;;;;;4855758;29;20565;-90
2022/04/20 04:13:48;;;;;;;5.47;3.45;;;9.60;99.90;;;;;;4863177;29;20046;-92
2022/04/20 04:16:19;;;;;;;4.22;2.65;;;9.30;99.90;;;;;;4861629;29;20066;-94
2022/04/20 04:23:08;;;;;;;6.15;3.15;;;9.40;99.90;;;;;;4859547;29;20045;-93
2022/04/20 04:49:18;;;;;;;12.18;3.83;;;9.60;99.90;;;;;;4864501;29;20050;-90
2022/04/20 04:51:47;;;;;;;4.18;2.00;;;9.70;99.90;;;;;;4847557;29;20049;-89
2022/04/20 04:54:16;;;;;;;7.03;3.42;;;9.60;99.90;;;;;;4858833;29;20053;-88
2022/04/20 04:56:44;;;;;;;4.85;2.78;;;9.60;99.90;;;;;;4859654;29;20064;-88
2022/04/20 04:59:36;;;;;;;3.72;2.08;;;9.70;99.90;;;;;;4847944;29;20053;-88
2022/04/20 05:02:05;;;;;;;3.72;2.10;;;9.90;99.90;;;;;;4843793;29;20057;-88
2022/04/20 05:04:34;;;;;;;5.93;2.72;;;9.70;99.90;;;;;;4860277;29;20074;-88
2022/04/20 05:07:03;;;;;;;5.03;2.20;;;9.90;99.90;;;;;;4861058;29;20045;-89
2022/04/20 05:09:31;;;;;;;4.18;2.28;;;10.00;99.90;;;;;;4861820;29;20045;-88
2022/04/20 05:11:59;;;;;;;2.67;1.70;;;10.10;99.90;;;;;;4860149;29;20045;-88
2022/04/20 05:14:28;;;;;;;2.90;1.98;;;10.10;99.90;;;;;;4860948;29;20106;-89
2022/04/20 05:16:59;;;;;;;3.45;2.05;;;10.30;99.90;;;;;;4850028;29;20504;-89
2022/04/20 05:19:29;;;;;;;7.80;2.80;;;10.30;99.90;;;;;;4845565;29;20046;-89
2022/04/20 05:22:01;;;;;;;4.28;2.20;;;10.30;99.90;;;;;;4859209;29;20129;-88
2022/04/20 05:24:35;;;;;;;6.53;3.20;;;10.10;99.90;;;;;;4844838;29;20050;-89
2022/04/20 05:27:06;;;;;;;8.75;3.22;;;10.10;99.90;;;;;;4859284;29;20114;-89
2022/04/20 05:29:47;;;;;;;5.13;3.13;;;10.00;99.90;;;;;;4857698;29;20070;-88
2022/04/20 05:32:15;;;;;;;4.97;2.28;;;10.10;99.90;;;;;;4859126;29;20504;-88
2022/04/20 05:34:42;;;;;;;4.53;2.55;;;10.00;99.90;;;;;;4844228;29;20099;-89
2022/04/20 05:42:46;;;;;;;9.73;3.10;;;10.10;99.90;;;;;;4844742;29;20053;-88
2022/04/20 05:45:14;;;;;;;5.63;3.13;;;10.00;99.90;;;;;;4875449;29;20049;-88
2022/04/20 05:47:46;;;;;;;5.97;3.08;;;9.90;99.90;;;;;;4862402;29;20060;-89
2022/04/20 05:50:13;;;;;;;4.65;2.80;;;9.80;99.90;;;;;;4862564;29;20584;-88
2022/04/20 05:52:41;;;;;;;8.20;3.65;;;9.90;99.90;;;;;;4862886;29;20132;-88
2022/04/20 05:55:09;;;;;;;4.85;1.73;;;9.90;99.90;;;;;;4862410;29;20148;-89
2022/04/20 05:57:37;;;;;;;6.18;2.90;;;9.90;99.90;;;;;;4847361;29;20046;-88
2022/04/20 06:00:06;;;;;;;3.53;2.28;;;9.90;99.90;;;;;;4862203;29;20051;-89
2022/04/20 06:02:41;;;;;;;4.13;2.47;;;10.00;99.90;;;;;;4862586;29;20053;-88
2022/04/20 06:05:10;;;;;;;3.33;2.25;;;10.00;99.90;;;;;;4862312;29;20053;-88
2022/04/20 06:07:50;;;;;;;5.43;3.20;;;10.20;99.90;;;;;;4862087;29;20053;-88
2022/04/20 06:10:39;;;;;;;7.50;3.40;;;10.00;99.90;;;;;;4862549;29;20106;-88
2022/04/20 06:13:12;;;;;;;5.07;2.92;;;10.10;99.90;;;;;;4848302;29;20144;-88
2022/04/20 06:15:50;;;;;;;6.78;3.25;;;10.20;99.90;;;;;;4862440;29;20574;-88
2022/04/20 06:18:17;;;;;;;7.30;3.90;;;10.20;99.90;;;;;;4862712;29;20049;-88
2022/04/20 06:21:05;;;;;;;4.20;2.83;;;10.10;99.90;;;;;;4861934;29;20065;-88
2022/04/20 06:23:50;;;;;;;4.35;2.72;;;10.30;99.90;;;;;;4861818;29;20046;-88
2022/04/20 06:26:24;;;;;;;4.10;2.95;;;10.50;99.90;;;;;;4862081;29;20077;-89
2022/04/20 06:29:07;;;;;;;6.88;3.47;;;10.50;99.90;;;;;;4848025;29;20885;-88
2022/04/20 06:32:12;;;;;;;7.72;4.38;;;10.50;99.90;;;;;;4851513;29;20049;-89
2022/04/20 06:34:45;;;;;;;4.63;2.93;;;10.50;99.90;;;;;;4862246;29;20046;-89
2022/04/20 06:37:40;;;;;;;3.53;2.35;;;10.60;99.90;;;;;;4853760;29;20866;-88
2022/04/20 06:40:27;;;;;;;7.15;3.83;;;10.70;99.90;;;;;;4861861;29;20053;-89
2022/04/20 06:43:16;;;;;;;5.43;2.42;;;10.60;99.90;;;;;;4854282;29;20052;-90
2022/04/20 06:45:59;;;;;;;10.55;5.63;;;10.50;99.90;;;;;;4863393;29;20049;-87
2022/04/20 06:49:03;;;;;;;9.25;3.20;;;10.60;95.80;;;;;;4865473;29;20169;-88
2022/04/20 07:00:22;;;;;;;7.40;3.20;;;10.60;91.70;;;;;;4861581;29;20045;-88
2022/04/20 07:03:08;;;;;;;3.28;2.30;;;10.70;94.70;;;;;;4854323;29;20110;-88
2022/04/20 07:05:51;;;;;;;5.80;3.38;;;10.90;93.40;;;;;;4865277;29;20045;-87
2022/04/20 07:08:35;;;;;;;5.13;2.78;;;10.70;85.10;;;;;;4866143;29;20053;-88
2022/04/20 07:11:16;;;;;;;5.53;3.25;;;10.90;84.30;;;;;;4861392;29;20049;-89
2022/04/20 07:13:46;;;;;;;4.38;2.55;;;10.80;82.40;;;;;;4861037;29;20105;-87
2022/04/20 07:16:15;;;;;;;6.80;2.95;;;10.90;85.50;;;;;;4861761;29;20140;-88
2022/04/20 07:18:47;;;;;;;4.50;2.22;;;10.90;81.30;;;;;;4846831;29;20050;-88
2022/04/20 07:21:35;;;;;;;5.57;2.88;;;10.90;76.20;;;;;;4861720;29;20072;-88
2022/04/20 07:24:28;;;;;;;5.30;3.15;;;11.00;67.80;;;;;;4850258;29;20416;-89
2022/04/20 07:26:58;;;;;;;5.00;3.25;;;10.70;64.50;;;;;;4861837;29;20449;-88
2022/04/20 07:29:43;;;;;;;5.47;3.33;;;10.80;67.70;;;;;;4861531;29;20530;-88
2022/04/20 07:32:19;;;;;;;3.80;2.35;;;10.70;64.80;;;;;;4861782;29;20439;-88
2022/04/20 07:35:04;;;;;;;3.70;2.10;;;10.70;72.10;;;;;;4861998;29;20041;-88
2022/04/20 07:37:55;;;;;;;4.20;2.50;;;10.80;66.00;;;;;;4861810;29;20564;-88
2022/04/20 07:40:41;;;;;;;5.32;3.45;;;10.80;72.90;;;;;;4860890;29;20052;-88
2022/04/20 07:43:37;;;;;;;4.85;3.30;;;10.80;76.20;;;;;;4848756;29;20057;-87
2022/04/20 07:46:24;;;;;;;8.25;3.25;;;10.80;61.40;;;;;;4847384;29;20073;-88
2022/04/20 07:52:12;;;;;;;5.03;3.45;;;10.80;62.90;;;;;;4861934;29;20117;-88
2022/04/20 07:54:59;;;;;;;8.23;3.83;;;10.90;74.30;;;;;;4861056;29;20520;-88
2022/04/20 07:57:44;;;;;;;6.68;3.85;;;10.80;76.50;;;;;;4862755;29;20050;-88
2022/04/20 08:00:32;;;;;;;8.75;3.08;;;10.90;77.10;;;;;;4860619;29;20526;-88
2022/04/20 08:03:31;;;;;;;6.13;3.30;;;10.90;67.80;;;;;;4860337;29;20132;-88
2022/04/20 08:06:00;;;;;;;3.13;2.40;;;11.00;62.50;;;;;;4831153;29;20507;-88
2022/04/20 08:08:31;;;;;;;6.15;3.25;;;11.00;43.80;;;;;;4861014;29;20068;-88
2022/04/20 08:10:59;;;;;;;6.07;3.10;;;11.10;37.60;;;;;;4830462;29;20411;-88
2022/04/20 08:16:24;;;;;;;5.40;3.28;;;11.10;47.20;;;;;;4860888;29;20590;-87
2022/04/20 08:19:30;;;;;;;4.50;2.92;;;11.10;41.60;;;;;;4841089;29;20046;-87
2022/04/20 08:22:15;;;;;;;8.13;3.40;;;11.10;37.00;;;;;;4841270;29;20056;-88
2022/04/20 08:25:05;;;;;;;6.68;3.45;;;11.30;37.80;;;;;;4849354;29;20407;-88
2022/04/20 08:27:32;;;;;;;6.70;3.37;;;11.20;28.70;;;;;;4860532;29;20082;-88
2022/04/20 08:29:59;;;;;;;10.40;3.42;;;11.20;18.50;;;;;;4860233;29;20291;-88
2022/04/20 08:32:29;;;;;;;7.35;3.33;;;11.30;19.40;;;;;;4860683;29;20049;-88
2022/04/20 08:34:56;;;;;;;4.25;2.70;;;11.40;9.40;;;;;;4845247;29;20514;-88
2022/04/20 08:37:27;;;;;;;5.00;3.10;;;11.50;8.30;;;;;;4845899;29;20045;-89
2022/04/20 08:39:54;;;;;;;5.25;3.30;;;11.50;1.00;;;;;;4860433;29;20105;-88
2022/04/20 08:42:22;;;;;;;5.70;3.13;;;11.50;1.00;;;;;;4845148;29;20048;-87
2022/04/20 08:44:50;;;;;;;3.85;2.47;;;11.50;1.00;;;;;;4861679;29;20048;-88
2022/04/20 08:47:21;;;;;;;4.50;2.92;;;11.50;1.00;;;;;;4845214;29;20109;-88
2022/04/20 08:49:50;;;;;;;6.22;3.55;;;11.50;1.00;;;;;;4861546;29;20572;-88
2022/04/20 08:52:39;;;;;;;13.18;3.60;;;11.60;1.00;;;;;;4862797;29;20077;-88
2022/04/20 08:55:08;;;;;;;4.65;2.53;;;11.60;1.00;;;;;;4848616;29;20462;-88
2022/04/20 08:57:36;;;;;;;5.70;2.42;;;11.70;1.00;;;;;;4863877;29;20132;-88
2022/04/20 09:00:06;;;;;;;5.07;3.03;;;11.80;1.00;;;;;;4863416;29;20069;-88
2022/04/20 09:02:33;;;;;;;5.38;2.67;;;11.70;1.00;;;;;;4833381;29;20073;-88
2022/04/20 09:05:03;;;;;;;8.07;2.72;;;11.70;1.00;;;;;;4863641;29;20177;-87
2022/04/20 09:07:34;;;;;;;5.97;2.85;;;11.90;1.00;;;;;;4848391;29;20397;-89
2022/04/20 09:10:01;;;;;;;6.00;2.83;;;11.90;1.00;;;;;;4863590;29;20185;-88
2022/04/20 09:12:29;;;;;;;45.95;6.70;;;11.90;1.00;;;;;;4848456;29;20046;-88
2022/04/20 09:14:56;;;;;;;15.82;3.90;;;11.90;1.00;;;;;;4865171;29;20092;-89
2022/04/20 09:17:24;;;;;;;39.67;6.53;;;11.90;1.00;;;;;;4846832;29;20092;-87
2022/04/20 09:19:53;;;;;;;9.68;3.47;;;11.90;1.00;;;;;;4845043;29;20049;-88
2022/04/20 09:22:24;;;;;;;8.32;2.90;;;11.90;1.00;;;;;;4845486;29;20065;-88
2022/04/20 09:25:11;;;;;;;6.18;2.38;;;12.00;1.00;;;;;;4845770;29;20129;-87
2022/04/20 09:27:40;;;;;;;5.55;2.35;;;12.00;1.00;;;;;;4845356;29;20083;-88
2022/04/20 09:30:10;;;;;;;5.03;2.40;;;12.10;1.00;;;;;;4829656;29;20145;-89
2022/04/20 09:32:40;;;;;;;4.20;2.40;;;12.10;1.00;;;;;;4830474;29;20065;-88
2022/04/20 09:35:12;;;;;;;4.97;2.50;;;12.20;1.00;;;;;;4829866;29;20053;-87
2022/04/20 09:37:40;;;;;;;3.90;2.53;;;12.10;1.00;;;;;;4845010;29;20141;-88
2022/04/20 09:40:46;;;;;;;4.53;2.35;;;12.10;1.00;;;;;;4845077;29;20628;-88
2022/04/20 09:43:16;;;;;;;4.70;2.60;;;12.10;1.00;;;;;;4846141;29;20058;-88
2022/04/20 09:45:43;;;;;;;8.13;3.45;;;12.30;1.00;;;;;;4830759;29;20111;-88
2022/04/20 09:51:12;;;;;;;5.13;2.67;;;12.20;1.00;;;;;;4862818;29;20060;-88
2022/04/20 09:53:40;;;;;;;5.13;2.80;;;12.30;1.00;;;;;;4862853;29;20132;-88
2022/04/20 09:56:15;;;;;;;4.75;2.25;;;12.40;1.00;;;;;;4848074;29;20072;-88
2022/04/20 09:58:44;;;;;;;5.43;2.70;;;12.50;1.00;;;;;;4863261;29;20081;-88
2022/04/20 10:01:36;;;;;;;5.68;2.83;;;12.50;1.00;;;;;;4863426;29;20476;-87
2022/04/20 10:04:06;;;;;;;5.50;2.50;;;12.40;1.00;;;;;;4862186;29;20050;-88
2022/04/20 10:06:34;;;;;;;3.83;2.15;;;12.40;1.00;;;;;;4847265;29;20055;-88
2022/04/20 10:09:00;;;;;;;8.60;2.33;;;12.50;1.00;;;;;;4847212;29;20158;-88
2022/04/20 10:11:28;;;;;;;7.47;2.55;;;12.50;1.00;;;;;;4847214;29;20046;-88
2022/04/20 10:16:51;;;;;;;5.43;2.95;;;12.60;1.00;;;;;;4837318;29;20500;-88
2022/04/20 10:19:28;;;;;;;25.48;4.25;;;12.80;1.00;;;;;;4844007;29;20042;-88
2022/04/20 10:21:57;;;;;;;4.50;2.45;;;12.70;1.00;;;;;;4843529;29;20050;-88
2022/04/20 10:24:29;;;;;;;6.20;2.60;;;12.70;1.00;;;;;;4844965;29;20046;-88
2022/04/20 10:27:09;;;;;;;8.48;3.03;;;12.70;1.00;;;;;;4844277;29;20442;-88
2022/04/20 10:30:07;;;;;;;7.30;2.72;;;13.00;1.00;;;;;;4844010;29;20138;-88
2022/04/20 10:32:47;;;;;;;4.20;2.65;;;13.10;1.00;;;;;;4844888;29;20053;-89
2022/04/20 10:35:16;;;;;;;7.10;2.95;;;13.40;1.00;;;;;;4843804;29;20061;-89
2022/04/20 10:38:07;;;;;;;7.32;2.20;;;13.50;1.00;;;;;;4843518;29;20049;-89
2022/04/20 10:41:11;;;;;;;6.03;2.70;;;13.60;1.00;;;;;;4828887;29;20128;-88
2022/04/20 10:43:42;;;;;;;3.97;2.05;;;13.60;1.00;;;;;;4846732;29;20050;-89
2022/04/20 10:46:20;;;;;;;5.72;2.88;;;13.60;1.00;;;;;;4848671;29;20563;-88
2022/04/20 10:48:57;;;;;;;5.57;2.20;;;13.60;1.00;;;;;;4867315;29;20053;-88
2022/04/20 10:51:32;;;;;;;6.43;2.55;;;13.60;1.00;;;;;;4863022;29;20045;-89
2022/04/20 10:54:17;;;;;;;5.35;3.05;;;13.50;1.00;;;;;;4847014;29;20059;-88
2022/04/20 10:57:01;;;;;;;6.20;2.22;;;13.70;1.00;;;;;;4847288;29;20057;-89
2022/04/20 10:59:28;;;;;;;6.93;2.63;;;13.80;1.00;;;;;;4846777;29;20144;-89
2022/04/20 11:01:59;;;;;;;5.15;2.47;;;14.00;1.00;;;;;;4862119;29;20538;-88
2022/04/20 11:04:39;;;;;;;4.82;2.40;;;14.10;1.00;;;;;;4861964;29;20049;-90
2022/04/20 11:07:09;;;;;;;2.45;1.85;;;14.10;1.00;;;;;;4862633;29;20514;-88
2022/04/20 11:09:44;;;;;;;6.72;2.78;;;14.10;1.00;;;;;;4862557;29;20059;-89
2022/04/20 11:21:16;;;;;;;6.10;2.15;;;14.30;1.00;;;;;;4863714;29;20065;-89
2022/04/20 11:24:08;;;;;;;3.63;2.22;;;14.30;1.00;;;;;;4862179;29;20077;-89
2022/04/20 11:26:55;;;;;;;2.88;1.73;;;14.30;1.00;;;;;;4862296;29;20088;-88
2022/04/20 11:29:24;;;;;;;2.92;2.13;;;14.30;1.00;;;;;;4862014;29;20064;-89
2022/04/20 11:32:04;;;;;;;2.92;1.80;;;14.50;1.00;;;;;;4845986;29;20057;-89
2022/04/20 11:34:44;;;;;;;5.85;1.92;;;14.50;1.00;;;;;;4848024;29;20078;-89
2022/04/20 11:37:11;;;;;;;5.22;2.40;;;14.50;1.00;;;;;;4861558;29;20053;-88
2022/04/20 11:39:38;;;;;;;3.47;2.08;;;14.80;1.00;;;;;;4861233;29;20062;-89
2022/04/20 11:42:07;;;;;;;4.53;2.13;;;15.00;1.00;;;;;;4862688;29;20496;-89
2022/04/20 11:44:43;;;;;;;3.13;2.00;;;15.10;1.00;;;;;;4862388;29;20056;-90
2022/04/20 11:47:24;;;;;;;4.20;2.42;;;15.10;1.00;;;;;;4843070;29;20084;-89
2022/04/20 11:49:51;;;;;;;6.00;3.00;;;15.30;1.00;;;;;;4857931;29;20072;-89
2022/04/20 11:52:26;;;;;;;4.03;2.75;;;15.20;1.00;;;;;;4843288;29;20049;-89
2022/04/20 11:55:17;;;;;;;4.13;1.90;;;15.40;1.00;;;;;;4846173;29;20109;-89
2022/04/20 11:57:44;;;;;;;2.13;1.60;;;15.30;1.00;;;;;;4862492;29;20492;-89
2022/04/20 12:00:13;;;;;;;3.05;1.70;;;15.40;1.00;;;;;;4862494;29;20047;-89
2022/04/20 12:02:40;;;;;;;5.53;2.10;;;15.40;1.00;;;;;;4846555;29;20049;-89
2022/04/20 12:05:15;;;;;;;3.10;2.10;;;15.60;1.00;;;;;;4861527;29;20037;-89
2022/04/20 12:07:42;;;;;;;6.03;1.95;;;15.40;1.00;;;;;;4861269;29;20045;-89
2022/04/20 12:10:11;;;;;;;2.55;1.63;;;15.60;1.00;;;;;;4831705;29;20523;-89
2022/04/20 12:12:42;;;;;;;3.10;1.65;;;15.90;1.00;;;;;;4861496;29;20442;-89
2022/04/20 12:15:09;;;;;;;2.55;1.58;;;15.80;1.00;;;;;;4862549;29;20053;-89
2022/04/20 12:17:37;;;;;;;3.25;1.95;;;15.90;1.00;;;;;;4842977;29;20405;-89
2022/04/20 12:20:05;;;;;;;6.22;2.55;;;15.90;1.00;;;;;;4843005;29;20504;-89
2022/04/20 12:22:37;;;;;;;3.63;2.22;;;15.90;1.00;;;;;;4828427;29;20050;-89
2022/04/20 12:25:05;;;;;;;3.95;2.42;;;16.10;1.00;;;;;;4842015;29;20054;-89
2022/04/20 12:27:53;;;;;;;2.38;1.80;;;15.70;1.00;;;;;;4842198;29;20049;-89
2022/04/20 12:30:36;;;;;;;7.72;2.80;;;15.50;1.00;;;;;;4842430;29;20054;-90
2022/04/20 12:33:08;;;;;;;3.97;2.15;;;15.40;1.00;;;;;;4827380;29;20046;-90
2022/04/20 12:35:35;;;;;;;5.50;2.50;;;15.40;1.00;;;;;;4827226;29;20106;-90
2022/04/20 12:38:15;;;;;;;4.40;2.53;;;15.40;1.00;;;;;;4842591;29;20454;-90
2022/04/20 12:40:42;;;;;;;6.60;2.58;;;15.80;1.00;;;;;;4842363;29;20351;-89
2022/04/20 12:43:12;;;;;;;3.45;2.00;;;15.80;1.00;;;;;;4842813;29;20467;-89
2022/04/20 12:45:43;;;;;;;4.57;2.17;;;15.80;1.00;;;;;;4828971;29;20050;-90
2022/04/20 12:48:11;;;;;;;4.75;2.15;;;16.00;1.00;;;;;;4860755;29;20041;-89
2022/04/20 12:50:46;;;;;;;4.07;2.50;;;15.80;1.00;;;;;;4861302;29;20110;-89
2022/04/20 12:53:13;;;;;;;4.68;2.38;;;15.40;1.00;;;;;;4860735;29;20148;-90
2022/04/20 13:04:12;;;;;;;5.18;2.10;;;15.70;1.00;;;;;;4861844;29;20053;-89
2022/04/20 13:06:39;;;;;;;6.15;2.30;;;16.40;1.00;;;;;;4845730;29;20042;-89
2022/04/20 13:09:06;;;;;;;7.43;2.00;;;15.90;1.00;;;;;;4860347;29;20054;-89
2022/04/20 13:11:34;;;;;;;6.47;2.25;;;15.80;1.00;;;;;;4860527;29;20102;-89
2022/04/20 13:14:06;;;;;;;;;;;16.40;1.00;;;;;;4846952;29;20053;-89
2022/04/20 13:16:33;;;;;;;7.35;2.38;;;16.50;1.00;;;;;;4845125;29;19931;-89
2022/04/20 13:19:00;;;;;;;5.32;2.25;;;16.00;1.00;;;;;;4860135;29;20053;-89
2022/04/20 13:21:27;;;;;;;6.20;3.17;;;16.20;1.00;;;;;;4860879;29;20109;-89
2022/04/20 13:23:56;;;;;;;11.68;3.20;;;15.30;1.00;;;;;;4860890;29;20049;-90
2022/04/20 13:29:10;;;;;;;6.20;2.20;;;15.90;1.00;;;;;;4860339;29;20054;-90
2022/04/20 13:31:38;;;;;;;6.43;2.08;;;16.30;1.00;;;;;;4860131;29;20126;-90
2022/04/20 13:34:05;;;;;;;4.07;1.92;;;16.50;1.00;;;;;;4860208;29;20053;-90
2022/04/20 13:36:32;;;;;;;5.85;2.03;;;16.40;1.00;;;;;;4845727;29;20057;-89
2022/04/20 13:38:59;;;;;;;6.03;3.13;;;15.90;1.00;;;;;;4863857;29;20053;-90
2022/04/20 13:41:26;;;;;;;3.78;2.42;;;15.50;1.00;;;;;;4863495;29;20419;-90
2022/04/20 13:43:54;;;;;;;4.72;1.75;;;15.80;1.00;;;;;;4848375;29;20094;-89
2022/04/20 13:46:21;;;;;;;4.32;1.88;;;16.10;1.00;;;;;;4863154;29;20582;-89
2022/04/20 13:48:49;;;;;;;3.42;1.77;;;16.20;1.00;;;;;;4863647;29;20049;-89
2022/04/20 13:51:16;;;;;;;7.72;2.78;;;16.60;1.00;;;;;;4863376;29;20553;-90
2022/04/20 13:53:43;;;;;;;4.13;2.17;;;16.10;1.00;;;;;;4863900;29;20084;-89
2022/04/20 13:56:14;;;;;;;2.47;1.45;;;16.50;1.00;;;;;;4864677;29;20052;-90
2022/04/20 13:58:42;;;;;;;8.63;2.63;;;16.50;1.00;;;;;;4864504;29;20048;-90
2022/04/20 14:01:10;;;;;;;7.93;2.30;;;16.10;1.00;;;;;;4862277;29;20056;-91
2022/04/20 14:03:40;;;;;;;6.07;2.15;;;16.20;1.00;;;;;;4864128;29;20133;-88
2022/04/20 14:06:08;;;;;;;4.97;2.58;;;16.90;1.00;;;;;;4863046;29;20041;-89
2022/04/20 14:08:36;;;;;;;8.35;2.78;;;16.30;1.00;;;;;;4864091;29;20118;-89
2022/04/20 14:11:03;;;;;;;7.70;4.00;;;16.40;1.00;;;;;;4862567;29;20144;-89
2022/04/20 14:13:30;;;;;;;4.65;2.50;;;16.40;1.00;;;;;;4862863;29;20081;-88
2022/04/20 14:16:01;;;;;;;8.43;2.10;;;16.80;1.00;;;;;;4862645;29;20054;-89
2022/04/20 14:18:29;;;;;;;4.70;2.03;;;17.30;1.00;;;;;;4863762;29;20557;-89
2022/04/20 14:20:57;;;;;;;6.35;2.25;;;16.70;1.00;;;;;;4863777;29;20089;-89
2022/04/20 14:23:24;;;;;;;5.18;2.55;;;16.50;1.00;;;;;;4847424;29;20520;-90
2022/04/20 14:34:49;;;;;;;4.38;2.08;;;17.40;1.00;;;;;;4862918;29;20045;-93
2022/04/20 14:37:18;;;;;;;3.33;1.25;;;17.00;1.00;;;;;;4857710;29;20054;-90
2022/04/20 14:39:57;;;;;;;2.58;1.35;;;17.20;1.00;;;;;;4869323;29;20049;-93
2022/04/20 14:42:25;;;;;;;6.65;2.33;;;17.50;1.00;;;;;;4862106;29;20077;-91
2022/04/20 14:44:53;;;;;;;5.18;1.83;;;18.00;1.00;;;;;;4863267;29;20065;-88
2022/04/20 14:47:20;;;;;;;6.63;1.73;;;18.00;1.00;;;;;;4863069;29;20128;-91
2022/04/20 14:49:48;;;;;;;4.80;1.42;;;17.30;1.00;;;;;;4860811;29;20080;-91
2022/04/20 14:52:16;;;;;;;1.75;1.33;;;17.20;1.00;;;;;;4862522;29;20050;-90